createdAt,value
2023-04-08T00:01:42.205Z,72.00
2023-04-08T00:04:09.937Z,71.70
2023-04-08T00:06:37.307Z,71.50
2023-04-08T00:09:04.096Z,71.80
2023-04-08T00:11:30.995Z,72.00
2023-04-08T00:13:57.745Z,71.90
2023-04-08T00:16:24.508Z,71.80
2023-04-08T00:18:51.688Z,71.80
2023-04-08T00:21:20.764Z,71.90
2023-04-08T00:23:47.615Z,72.10
2023-04-08T00:26:14.320Z,71.80
2023-04-08T00:28:41.190Z,72.10
2023-04-08T00:31:07.998Z,71.80
2023-04-08T00:33:34.978Z,72.00
2023-04-08T00:36:01.714Z,71.70
2023-04-08T00:38:28.403Z,71.10
2023-04-08T00:40:55.334Z,71.00
2023-04-08T00:43:22.018Z,70.80
2023-04-08T00:45:48.903Z,70.70
2023-04-08T00:48:15.923Z,70.00
2023-04-08T00:50:47.185Z,70.10
2023-04-08T00:53:18.033Z,70.20
2023-04-08T00:55:45.393Z,70.20
2023-04-08T00:58:13.083Z,70.30
2023-04-08T01:00:43.142Z,70.50
2023-04-08T01:03:24.561Z,70.30
2023-04-08T01:05:56.848Z,70.60
2023-04-08T01:08:25.823Z,70.30
2023-04-08T01:10:54.075Z,70.50
2023-04-08T01:13:22.442Z,70.40
2023-04-08T01:15:49.406Z,70.50
2023-04-08T01:18:17.307Z,70.70
2023-04-08T01:20:44.408Z,70.70
2023-04-08T01:23:29.233Z,70.70
2023-04-08T01:25:56.755Z,70.90
2023-04-08T01:28:25.037Z,70.90
2023-04-08T01:30:52.307Z,71.10
2023-04-08T01:33:19.540Z,71.30
2023-04-08T01:35:46.498Z,71.30
2023-04-08T01:38:15.316Z,71.60
2023-04-08T01:40:42.667Z,71.90
2023-04-08T01:43:10.940Z,72.00
2023-04-08T01:45:37.646Z,72.10
2023-04-08T01:48:04.862Z,72.00
2023-04-08T01:50:31.798Z,71.90
2023-04-08T01:53:00.282Z,71.80
2023-04-08T01:55:27.925Z,72.10
2023-04-08T01:57:56.241Z,72.20
2023-04-08T02:00:25.930Z,72.30
2023-04-08T02:02:53.514Z,72.50
2023-04-08T02:05:20.690Z,72.60
2023-04-08T02:07:47.907Z,72.90
2023-04-08T02:10:14.896Z,73.10
2023-04-08T02:12:41.852Z,73.10
2023-04-08T02:15:09.001Z,73.30
2023-04-08T02:17:46.438Z,73.30
2023-04-08T02:20:18.146Z,73.60
2023-04-08T02:22:49.831Z,73.90
2023-04-08T02:25:17.758Z,73.60
2023-04-08T02:27:45.936Z,73.50
2023-04-08T02:30:13.474Z,74.00
2023-04-08T02:32:40.581Z,74.00
2023-04-08T02:35:08.461Z,74.00
2023-04-08T02:37:35.339Z,74.20
2023-04-08T02:40:02.055Z,74.50
2023-04-08T02:42:28.744Z,74.40
2023-04-08T02:44:56.972Z,74.60
2023-04-08T02:47:23.676Z,74.50
2023-04-08T02:49:53.329Z,74.60
2023-04-08T02:52:20.501Z,74.60
2023-04-08T02:54:47.183Z,74.80
2023-04-08T02:57:13.900Z,75.00
2023-04-08T02:59:41.043Z,75.20
2023-04-08T03:02:07.843Z,75.30
2023-04-08T03:04:34.578Z,75.40
2023-04-08T03:07:01.260Z,75.10
2023-04-08T03:09:27.979Z,75.30
2023-04-08T03:11:55.015Z,75.60
2023-04-08T03:14:22.300Z,75.50
2023-04-08T03:16:49.184Z,75.40
2023-04-08T03:19:16.276Z,75.40
2023-04-08T03:21:43.074Z,75.50
2023-04-08T03:24:09.783Z,75.40
2023-04-08T03:26:36.478Z,75.60
2023-04-08T03:29:03.179Z,75.80
2023-04-08T03:31:29.958Z,76.00
2023-04-08T03:33:56.738Z,76.20
2023-04-08T03:36:23.451Z,76.40
2023-04-08T03:38:50.392Z,76.60
2023-04-08T03:41:17.357Z,76.80
2023-04-08T03:43:44.652Z,77.00
2023-04-08T03:46:11.513Z,77.10
2023-04-08T03:48:38.233Z,77.20
2023-04-08T03:51:05.038Z,77.10
2023-04-08T03:53:31.948Z,77.00
2023-04-08T03:55:59.492Z,77.10
2023-04-08T03:58:26.256Z,76.90
2023-04-08T04:00:52.940Z,77.30
2023-04-08T04:03:19.798Z,77.30
2023-04-08T04:05:46.671Z,76.70
2023-04-08T04:08:13.552Z,76.00
2023-04-08T04:10:40.383Z,76.90
2023-04-08T04:13:07.133Z,75.80
2023-04-08T04:15:33.851Z,74.20
2023-04-08T04:18:00.668Z,75.40
2023-04-08T04:20:29.235Z,75.40
2023-04-08T04:22:55.982Z,75.40
2023-04-08T04:25:22.909Z,75.40
2023-04-08T04:27:49.638Z,75.30
2023-04-08T04:30:16.788Z,75.80
2023-04-08T04:32:43.547Z,75.50
2023-04-08T04:35:10.758Z,74.60
2023-04-08T04:37:37.507Z,72.60
2023-04-08T04:40:05.183Z,72.10
2023-04-08T04:42:31.953Z,71.70
2023-04-08T04:44:59.013Z,70.10
2023-04-08T04:47:26.187Z,71.20
2023-04-08T04:49:52.947Z,69.40
2023-04-08T04:52:19.622Z,67.50
2023-04-08T04:54:46.398Z,66.70
2023-04-08T04:57:13.134Z,67.50
2023-04-08T04:59:39.853Z,68.70
2023-04-08T05:02:06.824Z,69.40
2023-04-08T05:04:33.689Z,69.80
2023-04-08T05:07:00.579Z,71.30
2023-04-08T05:09:27.240Z,70.60
2023-04-08T05:11:53.932Z,71.60
2023-04-08T05:14:20.732Z,71.50
2023-04-08T05:16:47.434Z,71.70
2023-04-08T05:19:14.120Z,69.40
2023-04-08T05:21:41.570Z,65.00
2023-04-08T05:24:08.345Z,63.20
2023-04-08T05:26:35.183Z,62.00
2023-04-08T05:29:01.870Z,59.70
2023-04-08T05:31:28.731Z,56.80
2023-04-08T05:33:55.467Z,55.30
2023-04-08T05:36:22.141Z,52.90
2023-04-08T05:38:49.059Z,51.50
2023-04-08T05:41:15.920Z,51.90
2023-04-08T05:43:42.688Z,52.60
2023-04-08T05:46:10.521Z,51.30
2023-04-08T05:48:37.311Z,51.50
2023-04-08T05:51:05.028Z,51.30
2023-04-08T05:53:31.684Z,51.50
2023-04-08T05:55:58.406Z,51.40
2023-04-08T05:58:25.125Z,50.00
2023-04-08T06:00:51.789Z,49.70
2023-04-08T06:03:20.499Z,49.10
2023-04-08T06:05:47.694Z,49.90
2023-04-08T06:08:14.380Z,48.60
2023-04-08T06:10:41.206Z,50.20
2023-04-08T06:13:07.896Z,48.60
2023-04-08T06:15:34.608Z,48.10
2023-04-08T06:18:01.457Z,48.20
2023-04-08T06:20:28.380Z,47.50
2023-04-08T06:22:55.290Z,46.50
2023-04-08T06:25:22.034Z,46.10
2023-04-08T06:27:48.780Z,45.70
2023-04-08T06:30:16.566Z,45.80
2023-04-08T06:32:43.346Z,45.80
2023-04-08T06:35:10.175Z,45.40
2023-04-08T06:37:38.748Z,44.30
2023-04-08T06:40:06.310Z,45.40
2023-04-08T06:42:32.984Z,44.70
2023-04-08T06:44:59.698Z,44.20
2023-04-08T06:47:26.495Z,44.10
2023-04-08T06:49:54.326Z,44.40
2023-04-08T06:52:21.173Z,42.70
2023-04-08T06:54:47.880Z,43.10
2023-04-08T06:57:14.607Z,43.00
2023-04-08T06:59:41.337Z,42.20
2023-04-08T07:02:08.067Z,42.00
2023-04-08T07:04:34.787Z,43.00
2023-04-08T07:07:01.740Z,40.80
2023-04-08T07:09:28.585Z,40.40
2023-04-08T07:11:55.857Z,40.60
2023-04-08T07:14:22.571Z,40.70
2023-04-08T07:16:49.335Z,41.10
2023-04-08T07:19:16.283Z,40.30
2023-04-08T07:21:43.023Z,40.90
2023-04-08T07:24:09.742Z,40.90
2023-04-08T07:26:36.486Z,39.70
2023-04-08T07:29:03.167Z,39.70
2023-04-08T07:31:29.963Z,39.50
2023-04-08T07:33:56.788Z,38.90
2023-04-08T07:36:23.455Z,39.70
2023-04-08T07:38:50.588Z,40.00
2023-04-08T07:41:17.438Z,39.40
2023-04-08T07:43:44.173Z,39.20
2023-04-08T07:46:10.947Z,38.60
2023-04-08T07:48:37.968Z,39.10
2023-04-08T07:51:08.622Z,38.70
2023-04-08T07:53:37.322Z,38.30
2023-04-08T07:56:04.264Z,39.00
2023-04-08T07:58:32.132Z,38.80
2023-04-08T08:00:59.571Z,39.40
2023-04-08T08:03:26.517Z,39.50
2023-04-08T08:05:53.411Z,39.30
2023-04-08T08:08:20.155Z,39.20
2023-04-08T08:10:46.823Z,39.00
2023-04-08T08:13:17.103Z,38.60
2023-04-08T08:15:43.863Z,38.30
2023-04-08T08:18:10.913Z,38.00
2023-04-08T08:20:37.675Z,38.70
2023-04-08T08:23:04.416Z,37.80
2023-04-08T08:25:31.354Z,37.40
2023-04-08T08:27:58.035Z,38.50
2023-04-08T08:30:26.515Z,38.50
2023-04-08T08:32:53.394Z,38.60
2023-04-08T08:35:20.455Z,39.50
2023-04-08T08:37:47.286Z,39.90
2023-04-08T08:40:14.460Z,38.80
2023-04-08T08:42:41.206Z,39.10
2023-04-08T08:45:08.332Z,39.80
2023-04-08T08:47:35.115Z,39.20
2023-04-08T08:50:02.772Z,39.00
2023-04-08T08:52:29.468Z,37.80
2023-04-08T08:54:59.544Z,37.00
2023-04-08T08:57:27.149Z,36.50
2023-04-08T08:59:53.836Z,36.50
2023-04-08T09:02:28.049Z,35.70
2023-04-08T09:05:04.932Z,36.10
2023-04-08T09:07:35.162Z,36.10
2023-04-08T09:10:02.165Z,35.90
2023-04-08T09:12:29.125Z,36.10
2023-04-08T09:15:06.235Z,36.50
2023-04-08T09:17:34.489Z,35.80
2023-04-08T09:20:12.212Z,35.40
2023-04-08T09:22:58.497Z,34.80
2023-04-08T09:25:26.628Z,35.40
2023-04-08T09:27:54.222Z,34.60
2023-04-08T09:30:27.583Z,34.90
2023-04-08T09:32:55.545Z,35.70
2023-04-08T09:35:22.703Z,36.30
2023-04-08T09:37:49.752Z,36.40
2023-04-08T09:40:17.015Z,35.80
2023-04-08T09:42:50.502Z,35.70
2023-04-08T09:45:17.675Z,36.50
2023-04-08T09:47:50.487Z,35.30
2023-04-08T09:50:20.032Z,35.20
2023-04-08T09:52:51.617Z,36.20
2023-04-08T09:55:21.289Z,34.80
2023-04-08T09:58:02.973Z,34.60
2023-04-08T10:00:34.447Z,35.00
2023-04-08T10:03:06.633Z,34.40
2023-04-08T10:05:37.662Z,32.90
2023-04-08T10:08:05.413Z,33.80
2023-04-08T10:10:32.532Z,33.50
2023-04-08T10:12:59.541Z,32.90
2023-04-08T10:15:33.192Z,33.10
2023-04-08T10:18:06.266Z,33.60
2023-04-08T10:20:38.857Z,33.10
2023-04-08T10:23:07.497Z,33.20
2023-04-08T10:25:37.934Z,33.60
2023-04-08T10:28:13.744Z,33.70
2023-04-08T10:30:40.400Z,32.40
2023-04-08T10:33:10.213Z,32.40
2023-04-08T10:42:58.939Z,32.50
2023-04-08T10:47:52.758Z,32.90
2023-04-08T10:50:21.303Z,33.10
2023-04-08T10:52:52.201Z,32.90
2023-04-08T10:55:26.213Z,32.70
2023-04-08T10:57:53.435Z,32.20
2023-04-08T11:00:31.983Z,32.80
2023-04-08T11:03:03.008Z,32.70
2023-04-08T11:05:29.819Z,32.90
2023-04-08T11:07:56.528Z,32.80
2023-04-08T11:10:23.240Z,32.80
2023-04-08T11:12:50.375Z,32.60
2023-04-08T11:15:17.573Z,32.50
2023-04-08T11:17:44.844Z,32.20
2023-04-08T11:20:11.654Z,32.40
2023-04-08T11:22:39.722Z,32.80
2023-04-08T11:25:08.517Z,32.50
2023-04-08T11:27:35.887Z,33.20
2023-04-08T11:30:03.752Z,33.00
2023-04-08T11:32:30.636Z,32.90
2023-04-08T11:34:59.870Z,32.20
2023-04-08T11:37:27.921Z,32.10
2023-04-08T11:39:57.071Z,32.20
2023-04-08T11:42:30.447Z,31.90
2023-04-08T11:44:57.252Z,32.40
2023-04-08T11:47:33.583Z,32.90
2023-04-08T11:50:01.632Z,32.30
2023-04-08T11:52:48.667Z,31.80
2023-04-08T11:55:28.808Z,32.30
2023-04-08T11:57:56.299Z,32.20
2023-04-08T12:00:23.553Z,31.70
2023-04-08T12:02:51.435Z,31.90
2023-04-08T12:05:18.314Z,31.80
2023-04-08T12:07:45.230Z,31.70
2023-04-08T12:10:12.364Z,32.20
2023-04-08T12:12:39.454Z,32.10
2023-04-08T12:15:06.718Z,32.00
2023-04-08T12:17:33.485Z,32.20
2023-04-08T12:20:01.048Z,31.90
2023-04-08T12:22:27.924Z,31.50
2023-04-08T12:24:54.659Z,31.30
2023-04-08T12:27:21.357Z,31.10
2023-04-08T12:29:49.869Z,30.80
2023-04-08T12:32:16.548Z,31.50
2023-04-08T12:34:43.269Z,31.40
2023-04-08T12:37:10.636Z,31.40
2023-04-08T12:39:37.405Z,31.20
2023-04-08T12:42:04.553Z,31.40
2023-04-08T12:44:31.261Z,31.40
2023-04-08T12:47:00.929Z,31.60
2023-04-08T12:49:28.221Z,32.20
2023-04-08T12:51:55.078Z,32.50
2023-04-08T12:54:21.901Z,32.50
2023-04-08T12:56:48.998Z,33.10
2023-04-08T12:59:16.114Z,32.50
2023-04-08T13:01:43.260Z,32.40
2023-04-08T13:04:10.225Z,32.80
2023-04-08T13:06:37.030Z,33.60
2023-04-08T13:09:03.784Z,33.00
2023-04-08T13:11:31.011Z,32.90
2023-04-08T13:13:57.691Z,33.20
2023-04-08T13:16:24.746Z,33.50
2023-04-08T13:18:52.643Z,33.60
2023-04-08T13:21:19.681Z,34.30
2023-04-08T13:23:46.988Z,33.80
2023-04-08T13:26:14.024Z,33.80
2023-04-08T13:28:55.901Z,34.70
2023-04-08T13:31:24.300Z,34.60
2023-04-08T13:33:51.164Z,36.40
2023-04-08T13:36:17.896Z,39.60
2023-04-08T13:38:46.140Z,42.60
2023-04-08T13:41:12.969Z,43.80
2023-04-08T13:43:39.659Z,45.60
2023-04-08T13:46:06.473Z,47.00
2023-04-08T13:48:33.185Z,47.90
2023-04-08T13:50:59.857Z,48.60
2023-04-08T13:53:27.173Z,49.10
2023-04-08T13:55:55.939Z,49.70
2023-04-08T13:58:24.157Z,49.90
2023-04-08T14:00:51.942Z,49.80
2023-04-08T14:03:20.785Z,49.60
2023-04-08T14:05:47.660Z,50.00
2023-04-08T14:08:14.418Z,50.10
2023-04-08T14:10:42.231Z,50.00
2023-04-08T14:13:09.455Z,49.90
2023-04-08T14:15:36.485Z,50.90
2023-04-08T14:18:04.500Z,50.10
2023-04-08T14:20:31.296Z,50.50
2023-04-08T14:22:58.016Z,50.10
2023-04-08T14:25:24.888Z,51.20
2023-04-08T14:27:58.476Z,51.00
2023-04-08T14:30:26.923Z,51.20
2023-04-08T14:32:54.241Z,51.20
2023-04-08T14:35:22.989Z,51.30
2023-04-08T14:37:49.755Z,50.70
2023-04-08T14:40:16.639Z,50.70
2023-04-08T14:42:45.541Z,51.50
2023-04-08T14:45:13.313Z,51.70
2023-04-08T14:47:40.050Z,51.30
2023-04-08T14:50:07.315Z,51.50
2023-04-08T14:52:34.054Z,51.50
2023-04-08T14:55:00.965Z,51.70
2023-04-08T14:57:27.715Z,52.00
2023-04-08T14:59:54.499Z,51.90
2023-04-08T15:02:21.328Z,52.60
2023-04-08T15:04:48.125Z,52.80
2023-04-08T15:07:14.893Z,52.90
2023-04-08T15:09:41.924Z,52.90
2023-04-08T15:12:08.623Z,52.50
2023-04-08T15:14:35.365Z,53.00
2023-04-08T15:17:02.059Z,52.90
2023-04-08T15:19:28.744Z,52.70
2023-04-08T15:21:55.529Z,53.20
2023-04-08T15:24:22.496Z,53.40
2023-04-08T15:26:49.195Z,53.20
2023-04-08T15:29:15.976Z,53.10
2023-04-08T15:31:43.079Z,53.50
2023-04-08T15:34:09.860Z,54.90
2023-04-08T15:36:37.449Z,53.70
2023-04-08T15:39:04.336Z,53.40
2023-04-08T15:41:32.405Z,53.40
2023-04-08T15:43:59.178Z,53.70
2023-04-08T15:46:25.967Z,53.90
2023-04-08T15:48:52.996Z,54.00
2023-04-08T15:51:20.532Z,54.70
2023-04-08T15:53:47.354Z,54.50
2023-04-08T15:56:14.973Z,54.90
2023-04-08T15:58:47.555Z,54.70
2023-04-08T16:01:14.313Z,55.00
2023-04-08T16:03:41.197Z,55.00
2023-04-08T16:06:08.667Z,55.10
2023-04-08T16:08:35.444Z,55.20
2023-04-08T16:11:03.960Z,54.70
2023-04-08T16:13:30.928Z,55.10
2023-04-08T16:15:58.462Z,54.90
2023-04-08T16:18:25.279Z,54.10
2023-04-08T16:20:52.080Z,53.80
2023-04-08T16:23:18.808Z,52.90
2023-04-08T16:25:45.952Z,52.30
2023-04-08T16:28:12.948Z,52.30
2023-04-08T16:30:42.950Z,51.80
2023-04-08T16:33:11.210Z,52.00
2023-04-08T16:35:38.160Z,52.90
2023-04-08T16:38:04.915Z,52.30
2023-04-08T16:40:33.602Z,52.70
2023-04-08T16:43:01.099Z,52.50
2023-04-08T16:45:32.574Z,53.00
2023-04-08T16:48:00.365Z,54.10
2023-04-08T16:50:28.562Z,56.00
2023-04-08T16:52:55.470Z,56.30
2023-04-08T16:55:22.205Z,56.20
2023-04-08T16:57:49.028Z,57.10
2023-04-08T17:00:20.589Z,57.40
2023-04-08T17:02:48.106Z,57.50
2023-04-08T17:05:15.128Z,57.80
2023-04-08T17:07:41.845Z,58.00
2023-04-08T17:10:08.825Z,57.70
2023-04-08T17:12:36.287Z,58.00
2023-04-08T17:15:03.411Z,57.60
2023-04-08T17:17:30.421Z,58.10
2023-04-08T17:19:57.288Z,57.80
2023-04-08T17:22:23.997Z,58.00
2023-04-08T17:24:50.805Z,58.10
2023-04-08T17:27:17.536Z,58.50
2023-04-08T17:29:44.357Z,58.70
2023-04-08T17:32:12.494Z,58.70
2023-04-08T17:34:39.426Z,59.00
2023-04-08T17:37:06.183Z,59.10
2023-04-08T17:39:33.498Z,59.50
2023-04-08T17:42:02.091Z,59.40
2023-04-08T17:44:30.041Z,59.20
2023-04-08T17:46:56.867Z,59.60
2023-04-08T17:49:23.707Z,59.20
2023-04-08T17:51:50.787Z,60.60
2023-04-08T17:54:17.738Z,59.50
2023-04-08T17:56:45.144Z,60.10
2023-04-08T17:59:12.691Z,58.80
2023-04-08T18:01:39.540Z,58.80
2023-04-08T18:04:08.338Z,58.70
2023-04-08T18:06:35.324Z,58.10
2023-04-08T18:09:03.782Z,58.00
2023-04-08T18:11:30.917Z,58.20
2023-04-08T18:13:57.652Z,58.30
2023-04-08T18:16:24.447Z,57.80
2023-04-08T18:18:51.455Z,57.90
2023-04-08T18:21:18.503Z,58.60
2023-04-08T18:23:47.029Z,58.30
2023-04-08T18:26:13.816Z,57.50
2023-04-08T18:28:40.743Z,57.70
2023-04-08T18:31:07.776Z,58.10
2023-04-08T18:33:34.737Z,57.50
2023-04-08T18:36:08.296Z,58.20
2023-04-08T18:38:36.369Z,57.70
2023-04-08T18:41:03.892Z,58.00
2023-04-08T18:43:30.798Z,57.50
2023-04-08T18:45:57.873Z,57.90
2023-04-08T18:48:24.733Z,57.30
2023-04-08T18:50:51.551Z,58.30
2023-04-08T18:53:18.315Z,58.30
2023-04-08T18:55:45.588Z,58.30
2023-04-08T18:58:12.294Z,58.10
2023-04-08T19:00:42.116Z,57.90
2023-04-08T19:03:10.248Z,57.70
2023-04-08T19:05:37.671Z,58.00
2023-04-08T19:08:04.812Z,58.30
2023-04-08T19:10:32.287Z,58.80
2023-04-08T19:12:59.681Z,58.80
2023-04-08T19:15:26.869Z,58.50
2023-04-08T19:17:54.236Z,58.90
2023-04-08T19:20:21.204Z,59.00
2023-04-08T19:22:49.048Z,59.50
2023-04-08T19:25:16.787Z,59.20
2023-04-08T19:27:43.549Z,59.40
2023-04-08T19:30:10.367Z,59.20
2023-04-08T19:32:37.155Z,60.30
2023-04-08T19:35:04.036Z,60.00
2023-04-08T19:37:30.972Z,60.40
2023-04-08T19:39:57.639Z,60.40
2023-04-08T19:42:24.394Z,60.70
2023-04-08T19:44:51.611Z,61.10
2023-04-08T19:47:18.349Z,60.40
2023-04-08T19:49:45.037Z,61.30
2023-04-08T19:52:11.990Z,61.90
2023-04-08T19:54:38.940Z,62.80
2023-04-08T19:57:10.792Z,62.90
2023-04-08T19:59:38.188Z,64.20
2023-04-08T20:02:05.159Z,63.00
2023-04-08T20:04:32.223Z,63.40
2023-04-08T20:07:02.474Z,63.70
2023-04-08T20:09:29.934Z,65.00
2023-04-08T20:12:03.616Z,64.00
2023-04-08T20:14:30.929Z,64.30
2023-04-08T20:16:57.927Z,64.60
2023-04-08T20:19:25.029Z,65.00
2023-04-08T20:21:51.802Z,64.40
2023-04-08T20:24:18.597Z,65.10
2023-04-08T20:26:45.398Z,65.60
2023-04-08T20:29:12.446Z,66.10
2023-04-08T20:31:39.722Z,66.20
2023-04-08T20:34:06.488Z,68.20
2023-04-08T20:36:34.295Z,66.90
2023-04-08T20:39:00.975Z,67.50
2023-04-08T20:41:27.880Z,67.40
2023-04-08T20:43:54.940Z,68.10
2023-04-08T20:46:22.411Z,67.90
2023-04-08T20:48:49.824Z,68.20
2023-04-08T20:51:17.435Z,69.10
2023-04-08T20:53:44.676Z,69.50
2023-04-08T20:56:11.447Z,70.20
2023-04-08T20:58:38.220Z,70.70
2023-04-08T21:01:04.955Z,71.20
2023-04-08T21:03:32.742Z,71.20
2023-04-08T21:05:59.527Z,71.70
2023-04-08T21:08:26.270Z,72.50
2023-04-08T21:10:54.314Z,72.90
2023-04-08T21:13:21.162Z,73.50
2023-04-08T21:15:47.854Z,74.30
2023-04-08T21:18:14.598Z,74.20
2023-04-08T21:20:41.366Z,74.80
2023-04-08T21:23:08.182Z,75.00
2023-04-08T21:25:34.946Z,75.10
2023-04-08T21:28:01.693Z,75.30
2023-04-08T21:30:28.379Z,75.70
2023-04-08T21:32:55.153Z,76.20
2023-04-08T21:35:22.091Z,76.60
2023-04-08T21:37:48.841Z,76.90
2023-04-08T21:40:15.584Z,77.30
2023-04-08T21:42:42.491Z,77.30
2023-04-08T21:45:09.551Z,78.10
2023-04-08T21:47:36.302Z,77.90
2023-04-08T21:50:03.259Z,78.10
2023-04-08T21:52:31.349Z,78.20
2023-04-08T21:54:58.071Z,78.60
2023-04-08T21:57:24.990Z,78.90
2023-04-08T21:59:51.671Z,79.20
2023-04-08T22:02:18.478Z,79.50
2023-04-08T22:04:46.377Z,80.00
2023-04-08T22:07:13.254Z,79.90
2023-04-08T22:09:40.080Z,80.10
2023-04-08T22:12:06.784Z,80.00
2023-04-08T22:14:33.570Z,80.00
2023-04-08T22:17:00.498Z,80.10
2023-04-08T22:19:27.277Z,80.30
2023-04-08T22:21:53.985Z,80.60
2023-04-08T22:24:21.055Z,80.50
2023-04-08T22:26:47.910Z,80.60
2023-04-08T22:29:14.620Z,80.80
2023-04-08T22:31:41.320Z,80.60
2023-04-08T22:34:08.007Z,80.80
2023-04-08T22:36:34.741Z,81.00
2023-04-08T22:39:01.475Z,81.20
2023-04-08T22:41:28.208Z,81.40
2023-04-08T22:43:54.933Z,81.30
2023-04-08T22:46:21.659Z,81.50
2023-04-08T22:48:49.575Z,81.70
2023-04-08T22:51:16.602Z,81.60
2023-04-08T22:53:43.714Z,81.90
2023-04-08T22:56:10.663Z,82.10
2023-04-08T22:58:37.466Z,82.10
2023-04-08T23:01:14.531Z,82.30
2023-04-08T23:03:41.821Z,82.50
2023-04-08T23:06:08.664Z,82.90
2023-04-08T23:08:35.487Z,83.00
2023-04-08T23:11:02.210Z,83.20
2023-04-08T23:13:28.879Z,83.40
2023-04-08T23:15:55.588Z,83.40
2023-04-08T23:18:22.501Z,83.60
2023-04-08T23:20:52.884Z,84.00
2023-04-08T23:23:20.537Z,84.30
2023-04-08T23:25:47.826Z,84.40
2023-04-08T23:28:14.529Z,84.40
2023-04-08T23:30:41.219Z,84.30
2023-04-08T23:33:08.039Z,84.40
2023-04-08T23:35:34.894Z,84.40
2023-04-08T23:38:01.668Z,84.40
2023-04-08T23:40:28.394Z,84.60
2023-04-08T23:42:55.260Z,85.10
2023-04-08T23:45:21.951Z,85.10
2023-04-08T23:47:48.819Z,85.00
2023-04-08T23:50:15.641Z,85.20
2023-04-08T23:52:42.391Z,85.30
2023-04-08T23:55:09.265Z,85.20
2023-04-08T23:57:35.975Z,85.20
